Time;durP1;ratioP1;P1;durP2;ratioP2;P2;SDS_P1;SDS_P2;PMS_P1;PMS_P2;Temp;Humidity;BMP_temperature;BMP_pressure;BME280_temperature;BME280_humidity;BME280_pressure;Samples;Min_cycle;Max_cycle;Signal;HPM_P1;HPM_P2
2023/12/14 00:00:59;;;;;;;;;;;;;;;;;;5076077;28;20010;-69
2023/12/14 00:03:24;;;;;;;;;;;;;;;;;;5076459;28;19912;-69
2023/12/14 00:05:50;;;;;;;;;;;;;;;;;;5076477;28;19912;-69
2023/12/14 00:08:16;;;;;;;;;;;;;;;;;;5075962;28;19923;-69
2023/12/14 00:10:42;;;;;;;;;;;;;;;;;;5076275;28;19924;-69
2023/12/14 00:13:08;;;;;;;;;;;;;;;;;;5076297;28;19908;-69
2023/12/14 00:15:34;;;;;;;;;;;;;;;;;;5075913;28;19918;-69
2023/12/14 00:18:00;;;;;;;;;;;;;;;;;;5076451;28;19908;-70
2023/12/14 00:20:26;;;;;;;;;;;;;;;;;;5076116;28;20281;-70
2023/12/14 00:22:52;;;;;;;;;;;;;;;;;;5075743;28;19962;-69
2023/12/14 00:25:18;;;;;;;;;;;;;;;;;;5076083;28;19908;-70
2023/12/14 00:27:44;;;;;;;;;;;;;;;;;;5075633;28;19915;-70
2023/12/14 00:30:10;;;;;;;;;;;;;;;;;;5075752;28;19924;-69
2023/12/14 00:32:36;;;;;;;;;;;;;;;;;;5074673;28;19966;-69
2023/12/14 00:35:02;;;;;;;;;;;;;;;;;;5075492;28;19912;-69
2023/12/14 00:37:28;;;;;;;;;;;;;;;;;;5075809;28;19954;-69
2023/12/14 00:39:54;;;;;;;;;;;;;;;;;;5075656;28;20361;-69
2023/12/14 00:42:20;;;;;;;;;;;;;;;;;;5075321;28;20384;-70
2023/12/14 00:44:46;;;;;;;;;;;;;;;;;;5075996;28;19909;-70
2023/12/14 00:47:12;;;;;;;;;;;;;;;;;;5075702;28;19951;-69
2023/12/14 00:49:38;;;;;;;;;;;;;;;;;;5075116;28;20323;-69
2023/12/14 00:52:05;;;;;;;;;;;;;;;;;;5074267;28;20368;-69
2023/12/14 00:54:31;;;;;;;;;;;;;;;;;;5075484;28;19954;-68
2023/12/14 00:56:57;;;;;;;;;;;;;;;;;;5075043;28;19909;-69
2023/12/14 00:59:23;;;;;;;;;;;;;;;;;;5075273;28;19913;-69
2023/12/14 01:01:49;;;;;;;;;;;;;;;;;;5075336;28;19954;-69
2023/12/14 01:04:15;;;;;;;;;;;;;;;;;;5074888;28;19920;-69
2023/12/14 01:06:41;;;;;;;;;;;;;;;;;;5075643;28;20343;-69
2023/12/14 01:09:08;;;;;;;;;;;;;;;;;;5075170;28;19931;-69
2023/12/14 01:11:34;;;;;;;;;;;;;;;;;;5074638;28;20002;-69
2023/12/14 01:13:59;;;;;;;;;;;;;;;;;;5075198;28;20272;-68
2023/12/14 01:16:25;;;;;;;;;;;;;;;;;;5075028;28;19932;-69
2023/12/14 01:18:51;;;;;;;;;;;;;;;;;;5074591;28;19909;-69
2023/12/14 01:21:17;;;;;;;;;;;;;;;;;;5074961;28;19923;-68
2023/12/14 01:23:43;;;;;;;;;;;;;;;;;;5075119;28;19908;-68
2023/12/14 01:26:09;;;;;;;;;;;;;;;;;;5074451;28;19913;-69
2023/12/14 01:28:35;;;;;;;;;;;;;;;;;;5074560;28;20351;-69
2023/12/14 01:31:01;;;;;;;;;;;;;;;;;;5074275;28;19939;-69
2023/12/14 01:33:27;;;;;;;;;;;;;;;;;;5074708;28;19912;-69
2023/12/14 01:35:53;;;;;;;;;;;;;;;;;;5074674;28;19909;-69
2023/12/14 01:38:19;;;;;;;;;;;;;;;;;;5074293;28;20470;-69
2023/12/14 01:40:45;;;;;;;;;;;;;;;;;;5074601;28;19958;-69
2023/12/14 01:43:11;;;;;;;;;;;;;;;;;;5074569;28;19908;-70
2023/12/14 01:45:37;;;;;;;;;;;;;;;;;;5074154;28;19913;-70
2023/12/14 01:48:03;;;;;;;;;;;;;;;;;;5073203;28;19909;-70
2023/12/14 01:50:29;;;;;;;;;;;;;;;;;;5074301;28;19916;-70
2023/12/14 01:52:55;;;;;;;;;;;;;;;;;;5073970;28;19919;-69
2023/12/14 01:55:21;;;;;;;;;;;;;;;;;;5074320;28;19916;-70
2023/12/14 01:57:47;;;;;;;;;;;;;;;;;;5074555;28;19936;-70
2023/12/14 02:00:13;;;;;;;;;;;;;;;;;;5073843;28;19912;-70
2023/12/14 02:02:40;;;;;;;;;;;;;;;;;;5074207;28;19908;-70
2023/12/14 02:05:06;;;;;;;;;;;;;;;;;;5074315;28;19908;-70
2023/12/14 02:07:31;;;;;;;;;;;;;;;;;;5073851;28;19955;-69
2023/12/14 02:09:57;;;;;;;;;;;;;;;;;;5074256;28;19952;-68
2023/12/14 02:12:23;;;;;;;;;;;;;;;;;;5074152;28;20426;-69
2023/12/14 02:14:49;;;;;;;;;;;;;;;;;;5073640;28;20254;-70
2023/12/14 02:17:15;;;;;;;;;;;;;;;;;;5073593;28;19916;-67
2023/12/14 02:19:41;;;;;;;;;;;;;;;;;;5073945;28;19938;-69
2023/12/14 02:22:07;;;;;;;;;;;;;;;;;;5073614;28;19909;-69
2023/12/14 02:24:33;;;;;;;;;;;;;;;;;;5074242;28;19908;-69
2023/12/14 02:26:59;;;;;;;;;;;;;;;;;;5074013;28;19909;-69
2023/12/14 02:29:25;;;;;;;;;;;;;;;;;;5073298;28;19924;-70
2023/12/14 02:31:51;;;;;;;;;;;;;;;;;;5073826;28;20420;-68
2023/12/14 02:34:18;;;;;;;;;;;;;;;;;;5073545;28;20008;-68
2023/12/14 02:36:44;;;;;;;;;;;;;;;;;;5072518;28;19909;-68
2023/12/14 02:39:10;;;;;;;;;;;;;;;;;;5073844;28;19912;-68
2023/12/14 02:41:36;;;;;;;;;;;;;;;;;;5073418;28;19939;-69
2023/12/14 02:44:02;;;;;;;;;;;;;;;;;;5073747;28;20246;-69
2023/12/14 02:46:28;;;;;;;;;;;;;;;;;;5073739;28;19908;-70
2023/12/14 02:48:54;;;;;;;;;;;;;;;;;;5073458;28;20006;-70
2023/12/14 02:51:20;;;;;;;;;;;;;;;;;;5073692;28;19924;-69
2023/12/14 02:53:46;;;;;;;;;;;;;;;;;;5073655;28;19944;-69
2023/12/14 02:56:12;;;;;;;;;;;;;;;;;;5073361;28;20391;-70
2023/12/14 02:58:38;;;;;;;;;;;;;;;;;;5073546;28;19970;-70
2023/12/14 03:01:04;;;;;;;;;;;;;;;;;;5073898;28;19909;-70
2023/12/14 03:03:30;;;;;;;;;;;;;;;;;;5073186;28;19908;-70
2023/12/14 03:05:56;;;;;;;;;;;;;;;;;;5073567;28;19908;-70
2023/12/14 03:08:22;;;;;;;;;;;;;;;;;;5073643;28;20288;-70
2023/12/14 03:10:48;;;;;;;;;;;;;;;;;;5073072;28;19916;-70
2023/12/14 03:13:13;;;;;;;;;;;;;;;;;;5073603;28;19915;-70
2023/12/14 03:15:39;;;;;;;;;;;;;;;;;;5073683;28;19909;-69
2023/12/14 03:18:05;;;;;;;;;;;;;;;;;;5073085;28;19909;-69
2023/12/14 03:20:31;;;;;;;;;;;;;;;;;;5073439;28;19915;-70
2023/12/14 03:22:57;;;;;;;;;;;;;;;;;;5073625;28;19955;-70
2023/12/14 03:25:23;;;;;;;;;;;;;;;;;;5073154;28;19915;-70
2023/12/14 03:27:49;;;;;;;;;;;;;;;;;;5073649;28;19942;-70
2023/12/14 03:30:15;;;;;;;;;;;;;;;;;;5076931;28;19925;-70
2023/12/14 03:32:42;;;;;;;;;;;;;;;;;;5076748;28;20319;-70
2023/12/14 03:35:08;;;;;;;;;;;;;;;;;;5077041;28;20383;-70
2023/12/14 03:37:34;;;;;;;;;;;;;;;;;;5076551;28;19909;-70
2023/12/14 03:40:00;;;;;;;;;;;;;;;;;;5076937;28;19908;-70
2023/12/14 03:42:26;;;;;;;;;;;;;;;;;;5077127;28;19908;-70
2023/12/14 03:44:51;;;;;;;;;;;;;;;;;;5076352;28;20007;-71
2023/12/14 03:47:17;;;;;;;;;;;;;;;;;;5076790;28;19912;-70
2023/12/14 03:49:43;;;;;;;;;;;;;;;;;;5076870;28;19924;-70
2023/12/14 03:52:09;;;;;;;;;;;;;;;;;;5076324;28;19948;-70
2023/12/14 03:54:35;;;;;;;;;;;;;;;;;;5076638;28;19965;-70
2023/12/14 03:57:01;;;;;;;;;;;;;;;;;;5076589;28;19962;-70
2023/12/14 03:59:27;;;;;;;;;;;;;;;;;;5076116;28;19912;-70
2023/12/14 04:01:53;;;;;;;;;;;;;;;;;;5076420;28;19950;-70
2023/12/14 04:04:19;;;;;;;;;;;;;;;;;;5076467;28;20303;-70
2023/12/14 04:06:45;;;;;;;;;;;;;;;;;;5076074;28;19908;-70
2023/12/14 04:09:11;;;;;;;;;;;;;;;;;;5076408;28;20002;-70
2023/12/14 04:11:37;;;;;;;;;;;;;;;;;;5076278;28;19916;-70
2023/12/14 04:14:03;;;;;;;;;;;;;;;;;;5075909;28;19962;-71
2023/12/14 04:16:29;;;;;;;;;;;;;;;;;;5074969;28;20007;-68
2023/12/14 04:18:56;;;;;;;;;;;;;;;;;;5076454;28;19912;-68
2023/12/14 04:21:22;;;;;;;;;;;;;;;;;;5075766;28;19909;-68
2023/12/14 04:23:48;;;;;;;;;;;;;;;;;;5076104;28;20261;-68
2023/12/14 04:26:14;;;;;;;;;;;;;;;;;;5076055;28;19908;-68
2023/12/14 04:28:40;;;;;;;;;;;;;;;;;;5075618;28;20392;-70
2023/12/14 04:31:06;;;;;;;;;;;;;;;;;;5075939;28;19923;-70
2023/12/14 04:33:32;;;;;;;;;;;;;;;;;;5075972;28;19975;-69
2023/12/14 04:35:58;;;;;;;;;;;;;;;;;;5075523;28;19912;-69
2023/12/14 04:38:24;;;;;;;;;;;;;;;;;;5076082;28;19915;-69
2023/12/14 04:40:50;;;;;;;;;;;;;;;;;;5075212;28;19909;-69
2023/12/14 04:43:16;;;;;;;;;;;;;;;;;;5076139;28;20010;-69
2023/12/14 04:45:42;;;;;;;;;;;;;;;;;;5075919;28;19923;-69
2023/12/14 04:48:08;;;;;;;;;;;;;;;;;;5075435;28;19908;-69
2023/12/14 04:50:34;;;;;;;;;;;;;;;;;;5075764;28;19917;-69
2023/12/14 04:53:00;;;;;;;;;;;;;;;;;;5075814;28;20392;-69
2023/12/14 04:55:26;;;;;;;;;;;;;;;;;;5075167;28;20281;-69
2023/12/14 04:57:52;;;;;;;;;;;;;;;;;;5075418;28;19909;-69
2023/12/14 05:00:17;;;;;;;;;;;;;;;;;;5075314;28;19909;-70
2023/12/14 05:02:43;;;;;;;;;;;;;;;;;;5075004;28;19908;-69
2023/12/14 05:05:10;;;;;;;;;;;;;;;;;;5075604;28;19908;-70
2023/12/14 05:07:36;;;;;;;;;;;;;;;;;;5075206;28;20011;-70
2023/12/14 05:10:02;;;;;;;;;;;;;;;;;;5074735;28;19962;-70
2023/12/14 05:12:29;;;;;;;;;;;;;;;;;;5075108;28;19908;-70
2023/12/14 05:14:55;;;;;;;;;;;;;;;;;;5075146;28;19912;-70
2023/12/14 05:17:21;;;;;;;;;;;;;;;;;;5074601;28;19915;-70
2023/12/14 05:19:47;;;;;;;;;;;;;;;;;;5074998;28;19909;-70
2023/12/14 05:22:13;;;;;;;;;;;;;;;;;;5073656;28;20003;-70
2023/12/14 05:24:39;;;;;;;;;;;;;;;;;;5073133;28;19955;-70
2023/12/14 05:27:04;;;;;;;;;;;;;;;;;;5074849;28;19924;-68
2023/12/14 05:29:32;;;;;;;;;;;;;;;;;;5074502;28;19920;-68
2023/12/14 05:31:59;;;;;;;;;;;;;;;;;;5074384;28;20053;-68
2023/12/14 05:34:25;;;;;;;;;;;;;;;;;;5075150;28;19997;-68
2023/12/14 05:36:50;;;;;;;;;;;;;;;;;;5074814;28;19990;-68
2023/12/14 05:39:16;;;;;;;;;;;;;;;;;;5074273;28;19916;-70
2023/12/14 05:41:42;;;;;;;;;;;;;;;;;;5074579;28;19908;-68
2023/12/14 05:44:09;;;;;;;;;;;;;;;;;;5074623;28;19962;-70
2023/12/14 05:46:35;;;;;;;;;;;;;;;;;;5074881;28;19916;-69
2023/12/14 05:49:01;;;;;;;;;;;;;;;;;;5074413;28;19995;-72
2023/12/14 05:51:27;;;;;;;;;;;;;;;;;;5072189;28;20351;-69
2023/12/14 05:53:53;;;;;;;;;;;;;;;;;;5073067;28;19975;-69
2023/12/14 05:56:19;;;;;;;;;;;;;;;;;;5074259;28;19978;-69
2023/12/14 05:58:45;;;;;;;;;;;;;;;;;;5073914;28;20364;-69
2023/12/14 06:01:11;;;;;;;;;;;;;;;;;;5074188;28;20252;-70
2023/12/14 06:03:37;;;;;;;;;;;;;;;;;;5074217;28;19931;-70
2023/12/14 06:06:03;;;;;;;;;;;;;;;;;;5073695;28;19908;-69
2023/12/14 06:08:29;;;;;;;;;;;;;;;;;;5074037;28;19942;-69
2023/12/14 06:10:55;;;;;;;;;;;;;;;;;;5073953;28;19921;-69
2023/12/14 06:13:21;;;;;;;;;;;;;;;;;;5073579;28;19954;-69
2023/12/14 06:15:47;;;;;;;;;;;;;;;;;;5072752;28;19909;-69
2023/12/14 06:18:13;;;;;;;;;;;;;;;;;;5073875;28;19915;-70
2023/12/14 06:20:39;;;;;;;;;;;;;;;;;;5073300;28;19962;-69
2023/12/14 06:23:05;;;;;;;;;;;;;;;;;;5072284;28;20003;-69
2023/12/14 06:25:32;;;;;;;;;;;;;;;;;;5063232;28;19920;-70
2023/12/14 06:27:58;;;;;;;;;;;;;;;;;;5059958;28;19912;-72
2023/12/14 06:30:24;;;;;;;;;;;;;;;;;;5070605;28;19973;-68
2023/12/14 06:32:50;;;;;;;;;;;;;;;;;;5066577;28;19912;-69
2023/12/14 06:35:16;;;;;;;;;;;;;;;;;;5068564;28;20003;-66
2023/12/14 06:37:42;;;;;;;;;;;;;;;;;;5067341;28;19913;-66
2023/12/14 06:40:08;;;;;;;;;;;;;;;;;;5055875;28;19958;-67
2023/12/14 06:42:34;;;;;;;;;;;;;;;;;;5068392;28;19912;-66
2023/12/14 06:45:00;;;;;;;;;;;;;;;;;;5070739;28;20339;-66
2023/12/14 06:47:26;;;;;;;;;;;;;;;;;;5062630;28;19917;-69
2023/12/14 06:49:52;;;;;;;;;;;;;;;;;;5051974;28;19924;-67
2023/12/14 06:52:18;;;;;;;;;;;;;;;;;;5071289;28;19959;-67
2023/12/14 06:54:44;;;;;;;;;;;;;;;;;;5069804;28;20006;-71
2023/12/14 06:57:10;;;;;;;;;;;;;;;;;;5071564;28;19999;-67
2023/12/14 06:59:35;;;;;;;;;;;;;;;;;;5071576;28;19920;-68
2023/12/14 07:02:01;;;;;;;;;;;;;;;;;;5069770;28;19916;-67
2023/12/14 07:04:27;;;;;;;;;;;;;;;;;;5074989;28;19965;-68
2023/12/14 07:06:53;;;;;;;;;;;;;;;;;;5074498;28;19912;-69
2023/12/14 07:09:19;;;;;;;;;;;;;;;;;;5074101;28;20416;-67
2023/12/14 07:11:46;;;;;;;;;;;;;;;;;;5073628;28;19921;-67
2023/12/14 07:14:12;;;;;;;;;;;;;;;;;;5067372;28;19967;-66
2023/12/14 07:16:38;;;;;;;;;;;;;;;;;;5066802;28;20345;-67
2023/12/14 07:19:04;;;;;;;;;;;;;;;;;;5071664;28;19931;-67
2023/12/14 07:21:33;;;;;;;;;;;;;;;;;;5070959;28;20539;-66
2023/12/14 07:23:59;;;;;;;;;;;;;;;;;;5070437;28;20376;-66
2023/12/14 07:26:25;;;;;;;;;;;;;;;;;;5072982;28;19919;-66
2023/12/14 07:28:51;;;;;;;;;;;;;;;;;;5072839;28;19943;-69
2023/12/14 07:31:17;;;;;;;;;;;;;;;;;;5071460;28;20355;-68
2023/12/14 07:33:43;;;;;;;;;;;;;;;;;;5073271;28;19927;-68
2023/12/14 07:36:09;;;;;;;;;;;;;;;;;;5067480;28;20649;-67
2023/12/14 07:38:35;;;;;;;;;;;;;;;;;;5072670;28;19917;-67
2023/12/14 07:41:00;;;;;;;;;;;;;;;;;;5071901;28;19916;-67
2023/12/14 07:43:26;;;;;;;;;;;;;;;;;;5071766;28;19908;-68
2023/12/14 07:45:53;;;;;;;;;;;;;;;;;;5065175;28;19912;-65
2023/12/14 07:48:19;;;;;;;;;;;;;;;;;;5072706;28;19920;-67
2023/12/14 07:50:45;;;;;;;;;;;;;;;;;;5074419;28;19924;-69
2023/12/14 07:53:11;;;;;;;;;;;;;;;;;;5075037;28;20225;-67
2023/12/14 07:55:37;;;;;;;;;;;;;;;;;;5069431;28;19916;-66
2023/12/14 07:58:03;;;;;;;;;;;;;;;;;;5074213;28;19942;-67
2023/12/14 08:00:29;;;;;;;;;;;;;;;;;;5072309;28;20281;-66
2023/12/14 08:02:55;;;;;;;;;;;;;;;;;;5071182;28;20011;-66
2023/12/14 08:05:21;;;;;;;;;;;;;;;;;;5070318;28;19923;-66
2023/12/14 08:07:48;;;;;;;;;;;;;;;;;;5069799;28;19913;-65
2023/12/14 08:10:14;;;;;;;;;;;;;;;;;;5066678;28;19932;-65
2023/12/14 08:12:40;;;;;;;;;;;;;;;;;;5069151;28;20010;-67
2023/12/14 08:15:07;;;;;;;;;;;;;;;;;;5067754;28;19916;-67
2023/12/14 08:17:33;;;;;;;;;;;;;;;;;;5067276;28;19916;-67
2023/12/14 08:20:01;;;;;;;;;;;;;;;;;;5063928;28;19917;-66
2023/12/14 08:22:27;;;;;;;;;;;;;;;;;;5057669;28;19920;-67
2023/12/14 08:24:53;;;;;;;;;;;;;;;;;;5062278;28;19924;-67
2023/12/14 08:27:19;;;;;;;;;;;;;;;;;;5069936;28;19913;-69
2023/12/14 08:29:45;;;;;;;;;;;;;;;;;;5071102;28;19924;-68
2023/12/14 08:32:12;;;;;;;;;;;;;;;;;;5068563;28;19923;-67
2023/12/14 08:34:38;;;;;;;;;;;;;;;;;;5088118;28;20487;-68
2023/12/14 08:37:04;;;;;;;;;;;;;;;;;;5092067;28;20264;-69
2023/12/14 08:39:30;;;;;;;;;;;;;;;;;;5087831;28;19926;-67
2023/12/14 08:41:59;;;;;;;;;;;;;;;;;;5068191;28;19997;-67
2023/12/14 08:44:25;;;;;;;;;;;;;;;;;;5079150;28;19962;-68
2023/12/14 08:46:51;;;;;;;;;;;;;;;;;;5062646;28;19912;-68
2023/12/14 08:49:17;;;;;;;;;;;;;;;;;;5051389;28;19919;-68
2023/12/14 08:51:43;;;;;;;;;;;;;;;;;;5066944;28;19928;-68
2023/12/14 08:54:09;;;;;;;;;;;;;;;;;;5071717;28;20546;-69
2023/12/14 08:56:35;;;;;;;;;;;;;;;;;;5070914;28;19999;-69
2023/12/14 08:59:03;;;;;;;;;;;;;;;;;;5067050;28;19912;-70
2023/12/14 09:01:29;;;;;;;;;;;;;;;;;;5071192;28;19931;-68
2023/12/14 09:03:55;;;;;;;;;;;;;;;;;;5071324;28;19956;-69
2023/12/14 09:06:21;;;;;;;;;;;;;;;;;;5070682;28;19958;-70
2023/12/14 09:08:47;;;;;;;;;;;;;;;;;;5069058;28;19917;-70
2023/12/14 09:11:15;;;;;;;;;;;;;;;;;;5069298;28;19918;-71
2023/12/14 09:13:42;;;;;;;;;;;;;;;;;;5073442;28;19916;-71
2023/12/14 09:16:08;;;;;;;;;;;;;;;;;;5067987;28;19912;-68
2023/12/14 09:18:34;;;;;;;;;;;;;;;;;;5059411;28;19913;-68
2023/12/14 09:21:00;;;;;;;;;;;;;;;;;;5066118;28;20277;-69
2023/12/14 09:23:26;;;;;;;;;;;;;;;;;;5068254;28;19913;-68
2023/12/14 09:25:52;;;;;;;;;;;;;;;;;;5069707;28;20218;-69
2023/12/14 09:28:19;;;;;;;;;;;;;;;;;;5059280;28;20440;-69
2023/12/14 09:30:46;;;;;;;;;;;;;;;;;;5045554;28;19928;-69
2023/12/14 09:33:12;;;;;;;;;;;;;;;;;;5067679;28;19909;-68
2023/12/14 09:35:38;;;;;;;;;;;;;;;;;;5069325;28;19959;-68
2023/12/14 09:38:04;;;;;;;;;;;;;;;;;;5069434;28;19970;-68
2023/12/14 09:40:32;;;;;;;;;;;;;;;;;;5069646;28;19909;-69
2023/12/14 09:43:01;;;;;;;;;;;;;;;;;;5068413;28;20433;-69
2023/12/14 09:45:27;;;;;;;;;;;;;;;;;;5063963;28;19916;-68
2023/12/14 09:47:53;;;;;;;;;;;;;;;;;;5065741;28;19919;-68
2023/12/14 09:50:19;;;;;;;;;;;;;;;;;;5069715;28;20834;-69
2023/12/14 09:52:45;;;;;;;;;;;;;;;;;;5066565;28;19916;-69
2023/12/14 09:55:11;;;;;;;;;;;;;;;;;;5074070;28;19912;-69
2023/12/14 09:57:37;;;;;;;;;;;;;;;;;;5073446;28;19920;-69
2023/12/14 10:00:06;;;;;;;;;;;;;;;;;;5065225;28;19920;-70
2023/12/14 10:02:32;;;;;;;;;;;;;;;;;;5068429;28;20486;-71
2023/12/14 10:04:58;;;;;;;;;;;;;;;;;;5067846;28;19916;-70
2023/12/14 10:07:24;;;;;;;;;;;;;;;;;;5070248;28;19970;-69
2023/12/14 10:09:50;;;;;;;;;;;;;;;;;;5069786;28;19975;-70
2023/12/14 10:12:17;;;;;;;;;;;;;;;;;;5067097;28;19919;-73
2023/12/14 10:14:43;;;;;;;;;;;;;;;;;;5066010;28;20365;-73
2023/12/14 10:17:09;;;;;;;;;;;;;;;;;;5063634;28;20053;-75
2023/12/14 10:19:35;;;;;;;;;;;;;;;;;;5074824;28;20392;-74
2023/12/14 10:22:01;;;;;;;;;;;;;;;;;;5028127;28;20173;-71
2023/12/14 10:24:27;;;;;;;;;;;;;;;;;;5046600;28;19927;-72
2023/12/14 10:26:53;;;;;;;;;;;;;;;;;;5030845;28;19917;-70
2023/12/14 10:29:19;;;;;;;;;;;;;;;;;;5042172;28;20050;-71
2023/12/14 10:31:45;;;;;;;;;;;;;;;;;;5029750;28;19928;-71
2023/12/14 10:34:12;;;;;;;;;;;;;;;;;;5037128;28;19917;-71
2023/12/14 10:36:38;;;;;;;;;;;;;;;;;;5040311;28;19974;-69
2023/12/14 10:39:05;;;;;;;;;;;;;;;;;;5057694;28;19916;-71
2023/12/14 10:41:31;;;;;;;;;;;;;;;;;;5067302;28;19966;-70
2023/12/14 10:43:57;;;;;;;;;;;;;;;;;;5070407;28;19910;-71
2023/12/14 10:46:23;;;;;;;;;;;;;;;;;;5082282;28;19918;-71
2023/12/14 10:48:49;;;;;;;;;;;;;;;;;;5069833;28;19973;-72
2023/12/14 10:51:15;;;;;;;;;;;;;;;;;;5068682;28;19924;-71
2023/12/14 10:53:44;;;;;;;;;;;;;;;;;;5086577;28;19953;-71
2023/12/14 10:56:10;;;;;;;;;;;;;;;;;;5070959;28;20652;-71
2023/12/14 10:58:36;;;;;;;;;;;;;;;;;;5068243;28;20363;-71
2023/12/14 11:01:02;;;;;;;;;;;;;;;;;;5068161;28;19913;-72
2023/12/14 11:03:28;;;;;;;;;;;;;;;;;;5066560;28;20305;-71
2023/12/14 11:05:54;;;;;;;;;;;;;;;;;;5067532;28;19912;-73
2023/12/14 11:08:20;;;;;;;;;;;;;;;;;;5069102;28;19932;-75
2023/12/14 11:10:47;;;;;;;;;;;;;;;;;;5069884;28;19979;-80
2023/12/14 11:13:14;;;;;;;;;;;;;;;;;;5069598;28;19912;-82
2023/12/14 11:15:40;;;;;;;;;;;;;;;;;;5068968;28;20015;-81
2023/12/14 11:18:05;;;;;;;;;;;;;;;;;;5068358;28;19924;-81
2023/12/14 11:20:31;;;;;;;;;;;;;;;;;;5071933;28;19912;-75
2023/12/14 11:22:57;;;;;;;;;;;;;;;;;;5067903;28;19958;-72
2023/12/14 11:25:24;;;;;;;;;;;;;;;;;;5067153;28;19913;-72
2023/12/14 11:27:50;;;;;;;;;;;;;;;;;;5069225;28;20246;-73
2023/12/14 11:30:16;;;;;;;;;;;;;;;;;;5070395;28;19921;-73
2023/12/14 11:32:42;;;;;;;;;;;;;;;;;;5071896;28;20066;-73
2023/12/14 11:35:11;;;;;;;;;;;;;;;;;;5072005;28;20412;-72
2023/12/14 11:37:37;;;;;;;;;;;;;;;;;;5069388;28;19916;-72
2023/12/14 11:40:05;;;;;;;;;;;;;;;;;;5065550;28;19975;-73
2023/12/14 11:42:31;;;;;;;;;;;;;;;;;;5067161;28;19974;-73
2023/12/14 11:44:57;;;;;;;;;;;;;;;;;;5071455;28;19962;-73
2023/12/14 11:47:23;;;;;;;;;;;;;;;;;;5070179;28;20380;-72
2023/12/14 11:49:49;;;;;;;;;;;;;;;;;;5070639;28;20491;-72
2023/12/14 11:52:15;;;;;;;;;;;;;;;;;;5071069;28;19956;-73
2023/12/14 11:54:41;;;;;;;;;;;;;;;;;;5072349;28;19909;-72
2023/12/14 11:57:09;;;;;;;;;;;;;;;;;;5071664;28;19912;-72
2023/12/14 11:59:36;;;;;;;;;;;;;;;;;;5071185;28;20416;-72
2023/12/14 12:02:03;;;;;;;;;;;;;;;;;;5068972;28;19992;-73
2023/12/14 12:04:29;;;;;;;;;;;;;;;;;;5070814;28;20057;-69
2023/12/14 12:06:55;;;;;;;;;;;;;;;;;;5070278;28;19920;-71
2023/12/14 12:09:21;;;;;;;;;;;;;;;;;;5070043;28;20284;-69
2023/12/14 12:11:48;;;;;;;;;;;;;;;;;;5069592;28;19920;-71
2023/12/14 12:14:14;;;;;;;;;;;;;;;;;;5066158;28;19970;-68
2023/12/14 12:16:40;;;;;;;;;;;;;;;;;;5066121;28;20412;-70
2023/12/14 12:19:06;;;;;;;;;;;;;;;;;;5068474;28;19912;-69
2023/12/14 12:21:32;;;;;;;;;;;;;;;;;;5068981;28;19924;-69
2023/12/14 12:23:58;;;;;;;;;;;;;;;;;;5071167;28;20004;-69
2023/12/14 12:26:24;;;;;;;;;;;;;;;;;;5070064;28;19908;-71
2023/12/14 12:28:50;;;;;;;;;;;;;;;;;;5071584;28;19921;-71
2023/12/14 12:31:16;;;;;;;;;;;;;;;;;;5067056;28;19932;-70
2023/12/14 12:33:42;;;;;;;;;;;;;;;;;;5068886;28;19947;-73
2023/12/14 12:36:08;;;;;;;;;;;;;;;;;;5069689;28;19956;-72
2023/12/14 12:38:34;;;;;;;;;;;;;;;;;;5068820;28;19912;-69
2023/12/14 12:41:00;;;;;;;;;;;;;;;;;;5070401;28;20338;-70
2023/12/14 12:43:26;;;;;;;;;;;;;;;;;;5072223;28;19908;-72
2023/12/14 12:45:52;;;;;;;;;;;;;;;;;;5072416;28;19919;-69
2023/12/14 12:48:18;;;;;;;;;;;;;;;;;;5072115;28;19928;-70
2023/12/14 12:50:44;;;;;;;;;;;;;;;;;;5070805;28;19928;-71
2023/12/14 12:53:10;;;;;;;;;;;;;;;;;;5073180;28;20012;-72
2023/12/14 12:55:36;;;;;;;;;;;;;;;;;;5073011;28;20011;-69
2023/12/14 12:58:05;;;;;;;;;;;;;;;;;;5073590;28;19909;-69
2023/12/14 13:00:30;;;;;;;;;;;;;;;;;;5073020;28;19913;-69
2023/12/14 13:02:56;;;;;;;;;;;;;;;;;;5073061;28;19934;-70
2023/12/14 13:05:24;;;;;;;;;;;;;;;;;;5072633;28;19931;-72
2023/12/14 13:07:50;;;;;;;;;;;;;;;;;;5072196;28;20256;-70
2023/12/14 13:10:18;;;;;;;;;;;;;;;;;;5072735;28;19924;-70
2023/12/14 13:12:44;;;;;;;;;;;;;;;;;;5074287;28;19912;-71
2023/12/14 13:15:10;;;;;;;;;;;;;;;;;;5072800;28;19909;-73
2023/12/14 13:17:36;;;;;;;;;;;;;;;;;;5072573;28;20013;-71
2023/12/14 13:20:02;;;;;;;;;;;;;;;;;;5072125;28;19926;-71
2023/12/14 13:22:28;;;;;;;;;;;;;;;;;;5072983;28;19999;-71
2023/12/14 13:24:54;;;;;;;;;;;;;;;;;;5073735;28;19959;-72
2023/12/14 13:27:20;;;;;;;;;;;;;;;;;;5080085;28;20344;-73
2023/12/14 13:29:46;;;;;;;;;;;;;;;;;;5069154;28;19966;-74
2023/12/14 13:32:12;;;;;;;;;;;;;;;;;;5070739;28;19908;-72
2023/12/14 13:34:38;;;;;;;;;;;;;;;;;;5072631;28;19935;-72
2023/12/14 13:37:05;;;;;;;;;;;;;;;;;;5073481;28;19916;-72
2023/12/14 13:39:33;;;;;;;;;;;;;;;;;;5074350;28;20288;-78
2023/12/14 13:41:59;;;;;;;;;;;;;;;;;;5072754;28;20011;-78
2023/12/14 13:44:26;;;;;;;;;;;;;;;;;;5074270;28;20007;-80
2023/12/14 13:46:52;;;;;;;;;;;;;;;;;;5071637;28;19912;-76
2023/12/14 13:49:18;;;;;;;;;;;;;;;;;;5071164;28;20335;-73
2023/12/14 13:51:44;;;;;;;;;;;;;;;;;;5072076;28;19916;-72
2023/12/14 13:54:10;;;;;;;;;;;;;;;;;;5072982;28;19919;-72
2023/12/14 13:56:36;;;;;;;;;;;;;;;;;;5074284;28;20364;-73
2023/12/14 13:59:02;;;;;;;;;;;;;;;;;;5074377;28;19947;-72
2023/12/14 14:01:28;;;;;;;;;;;;;;;;;;5065699;28;19912;-72
2023/12/14 14:03:54;;;;;;;;;;;;;;;;;;5065754;28;19912;-73
2023/12/14 14:06:20;;;;;;;;;;;;;;;;;;5073104;28;20369;-73
2023/12/14 14:08:46;;;;;;;;;;;;;;;;;;5074085;28;20353;-73
2023/12/14 14:11:12;;;;;;;;;;;;;;;;;;5073762;28;19923;-72
2023/12/14 14:13:38;;;;;;;;;;;;;;;;;;5073482;28;20312;-74
2023/12/14 14:16:05;;;;;;;;;;;;;;;;;;5074134;28;20372;-73
2023/12/14 14:18:31;;;;;;;;;;;;;;;;;;5073585;28;19916;-71
2023/12/14 14:20:57;;;;;;;;;;;;;;;;;;5071894;28;19909;-72
2023/12/14 14:23:23;;;;;;;;;;;;;;;;;;5071938;28;19909;-72
2023/12/14 14:25:53;;;;;;;;;;;;;;;;;;5072325;28;19916;-72
2023/12/14 14:28:19;;;;;;;;;;;;;;;;;;5073336;28;20347;-72
2023/12/14 14:30:45;;;;;;;;;;;;;;;;;;5073619;28;19950;-72
2023/12/14 14:33:17;;;;;;;;;;;;;;;;;;5072790;28;20221;-72
2023/12/14 14:35:43;;;;;;;;;;;;;;;;;;5073985;28;19912;-73
2023/12/14 14:38:09;;;;;;;;;;;;;;;;;;5073824;28;19931;-72
2023/12/14 14:40:35;;;;;;;;;;;;;;;;;;5073317;28;19948;-72
2023/12/14 14:43:01;;;;;;;;;;;;;;;;;;5073607;28;19958;-72
2023/12/14 14:45:27;;;;;;;;;;;;;;;;;;5073756;28;19915;-73
2023/12/14 14:47:53;;;;;;;;;;;;;;;;;;5073197;28;19904;-72
2023/12/14 14:50:19;;;;;;;;;;;;;;;;;;5072251;28;19920;-72
2023/12/14 14:52:45;;;;;;;;;;;;;;;;;;5073329;28;19913;-72
2023/12/14 14:55:11;;;;;;;;;;;;;;;;;;5073749;28;19909;-72
2023/12/14 14:57:37;;;;;;;;;;;;;;;;;;5073487;28;19935;-73
2023/12/14 15:00:03;;;;;;;;;;;;;;;;;;5073135;28;19916;-72
2023/12/14 15:02:29;;;;;;;;;;;;;;;;;;5073520;28;20379;-73
2023/12/14 15:04:55;;;;;;;;;;;;;;;;;;5073408;28;19912;-73
2023/12/14 15:07:21;;;;;;;;;;;;;;;;;;5073182;28;19935;-73
2023/12/14 15:09:47;;;;;;;;;;;;;;;;;;5073398;28;20299;-73
2023/12/14 15:12:13;;;;;;;;;;;;;;;;;;5073531;28;19936;-73
2023/12/14 15:14:39;;;;;;;;;;;;;;;;;;5073013;28;19961;-73
2023/12/14 15:17:05;;;;;;;;;;;;;;;;;;5073442;28;20341;-72
2023/12/14 15:19:31;;;;;;;;;;;;;;;;;;5073427;28;19931;-73
2023/12/14 15:21:57;;;;;;;;;;;;;;;;;;5072982;28;19909;-73
2023/12/14 15:24:23;;;;;;;;;;;;;;;;;;5075908;28;19951;-72
2023/12/14 15:26:49;;;;;;;;;;;;;;;;;;5077234;28;19919;-73
2023/12/14 15:29:15;;;;;;;;;;;;;;;;;;5075395;28;19920;-73
2023/12/14 15:31:41;;;;;;;;;;;;;;;;;;5077077;28;19916;-73
2023/12/14 15:34:07;;;;;;;;;;;;;;;;;;5075845;28;19908;-73
2023/12/14 15:36:36;;;;;;;;;;;;;;;;;;5076650;28;19931;-73
2023/12/14 15:39:04;;;;;;;;;;;;;;;;;;5077192;28;19948;-73
2023/12/14 15:41:30;;;;;;;;;;;;;;;;;;5077210;28;19952;-73
2023/12/14 15:43:55;;;;;;;;;;;;;;;;;;5076752;28;20376;-74
2023/12/14 15:46:21;;;;;;;;;;;;;;;;;;5074273;28;20281;-73
2023/12/14 15:48:47;;;;;;;;;;;;;;;;;;5076452;28;20280;-73
2023/12/14 15:51:13;;;;;;;;;;;;;;;;;;5076200;28;19990;-73
2023/12/14 15:53:39;;;;;;;;;;;;;;;;;;5076731;28;19908;-73
2023/12/14 15:56:05;;;;;;;;;;;;;;;;;;5076314;28;19912;-73
2023/12/14 15:58:31;;;;;;;;;;;;;;;;;;5076719;28;20015;-74
2023/12/14 16:00:57;;;;;;;;;;;;;;;;;;5076824;28;20396;-74
2023/12/14 16:03:23;;;;;;;;;;;;;;;;;;5076276;28;20383;-74
2023/12/14 16:05:49;;;;;;;;;;;;;;;;;;5076502;28;20323;-73
2023/12/14 16:08:15;;;;;;;;;;;;;;;;;;5076532;28;20379;-73
2023/12/14 16:10:44;;;;;;;;;;;;;;;;;;5076026;28;19918;-73
2023/12/14 16:13:10;;;;;;;;;;;;;;;;;;5077086;28;19962;-74
2023/12/14 16:15:37;;;;;;;;;;;;;;;;;;5075619;28;19909;-73
2023/12/14 16:18:03;;;;;;;;;;;;;;;;;;5075975;28;19915;-73
2023/12/14 16:20:29;;;;;;;;;;;;;;;;;;5076356;28;19908;-74
2023/12/14 16:22:55;;;;;;;;;;;;;;;;;;5076197;28;19912;-73
2023/12/14 16:25:21;;;;;;;;;;;;;;;;;;5075705;28;19908;-73
2023/12/14 16:27:47;;;;;;;;;;;;;;;;;;5076052;28;19931;-73
2023/12/14 16:30:13;;;;;;;;;;;;;;;;;;5074595;28;19920;-73
2023/12/14 16:32:39;;;;;;;;;;;;;;;;;;5075805;28;19913;-73
2023/12/14 16:35:05;;;;;;;;;;;;;;;;;;5075390;28;20261;-73
2023/12/14 16:37:31;;;;;;;;;;;;;;;;;;5074724;28;19908;-74